Time;durP1;ratioP1;P1;durP2;ratioP2;P2;SDS_P1;SDS_P2;PMS_P1;PMS_P2;Temp;Humidity;BMP_temperature;BMP_pressure;BME280_temperature;BME280_humidity;BME280_pressure;Samples;Min_cycle;Max_cycle;Signal;HPM_P1;HPM_P2
2023/02/23 00:01:20;;;;;;;4.80;2.90;;;;;;;8.32;45.44;100954.73;107973;1289;21993;-61
2023/02/23 00:03:48;;;;;;;5.30;3.10;;;;;;;8.31;45.62;100953.52;107853;1289;23771;-64
2023/02/23 00:06:14;;;;;;;5.50;3.40;;;;;;;8.30;45.37;100959.10;107887;1289;21999;-65
2023/02/23 00:08:46;;;;;;;5.70;3.10;;;;;;;8.29;45.49;100961.36;107947;1289;22455;-65
2023/02/23 00:11:14;;;;;;;6.50;4.00;;;;;;;8.29;45.51;100962.76;108002;1289;21996;-65
2023/02/23 00:13:40;;;;;;;6.60;3.40;;;;;;;8.28;45.48;100965.20;108025;1283;21996;-65
2023/02/23 00:16:11;;;;;;;5.00;3.10;;;;;;;8.28;45.49;100962.04;108002;1278;22030;-61
2023/02/23 00:18:47;;;;;;;4.80;2.60;;;;;;;8.29;45.50;100965.55;107992;1289;21989;-65
2023/02/23 00:21:14;;;;;;;6.00;3.00;;;;;;;8.30;45.50;100966.96;108004;1283;22000;-65
2023/02/23 00:23:51;;;;;;;5.70;3.80;;;;;;;8.30;45.50;100971.69;108001;1289;21985;-61
2023/02/23 00:26:19;;;;;;;8.10;3.20;;;;;;;8.31;45.52;100973.45;108025;1289;22056;-65
2023/02/23 00:28:46;;;;;;;5.20;3.50;;;;;;;8.29;45.39;100972.03;107917;1289;22002;-61
2023/02/23 00:31:12;;;;;;;5.70;3.20;;;;;;;8.27;45.55;100974.46;107890;1289;22452;-62
2023/02/23 00:33:39;;;;;;;6.80;4.20;;;;;;;8.25;45.48;100976.90;108013;1288;22003;-65
2023/02/23 00:36:11;;;;;;;5.20;3.40;;;;;;;8.24;45.59;100980.55;108027;1289;22003;-61
2023/02/23 00:38:38;;;;;;;5.70;4.00;;;;;;;8.23;45.66;100981.77;107835;1289;22766;-65
2023/02/23 00:41:09;;;;;;;6.60;3.60;;;;;;;8.22;45.62;100982.46;107909;1289;22034;-65
2023/02/23 00:43:48;;;;;;;6.60;3.70;;;;;;;8.20;45.70;100984.20;107892;1289;21993;-61
2023/02/23 00:46:20;;;;;;;6.60;3.50;;;;;;;8.18;45.69;100987.86;107846;1289;21993;-61
2023/02/23 00:48:49;;;;;;;6.10;3.20;;;;;;;8.19;45.62;100993.81;107857;1289;22034;-65
2023/02/23 00:51:16;;;;;;;4.70;2.80;;;;;;;8.19;45.61;100993.80;108017;1288;22441;-61
2023/02/23 00:53:42;;;;;;;6.40;3.60;;;;;;;8.18;45.76;100999.23;107907;1287;21973;-65
2023/02/23 00:56:09;;;;;;;6.50;3.30;;;;;;;8.16;45.66;100999.91;108029;1289;22002;-61
2023/02/23 00:58:35;;;;;;;6.40;3.50;;;;;;;8.13;45.90;101000.07;108030;1289;21997;-62
2023/02/23 01:01:00;;;;;;;7.50;4.20;;;;;;;8.13;45.82;101003.56;107319;1289;1006789;-64
2023/02/23 01:03:27;;;;;;;5.90;3.90;;;;;;;8.07;45.82;101004.39;107959;1276;22000;-61
2023/02/23 01:05:59;;;;;;;6.80;3.50;;;;;;;8.00;45.83;101000.65;107998;1288;21994;-61
2023/02/23 01:08:26;;;;;;;6.00;3.80;;;;;;;7.95;45.90;101002.37;107925;1289;22030;-62
2023/02/23 01:10:52;;;;;;;5.70;3.20;;;;;;;7.96;45.97;101000.10;108061;1289;21989;-65
2023/02/23 01:13:19;;;;;;;5.10;3.30;;;;;;;8.02;45.75;101002.61;107897;1289;22039;-65
2023/02/23 01:15:46;;;;;;;6.80;3.60;;;;;;;8.04;45.69;101003.13;107182;1289;1002878;-62
2023/02/23 01:18:16;;;;;;;6.30;3.70;;;;;;;8.09;45.84;101008.26;107944;1289;21994;-61
2023/02/23 01:20:43;;;;;;;6.80;3.30;;;;;;;8.12;45.97;101011.77;107942;1289;22084;-64
2023/02/23 01:23:11;;;;;;;7.00;3.70;;;;;;;8.11;45.77;101013.86;107915;1289;22016;-62
2023/02/23 01:25:37;;;;;;;6.20;3.80;;;;;;;8.09;45.68;101017.68;107898;1289;22000;-64
2023/02/23 01:28:03;;;;;;;5.90;3.40;;;;;;;8.07;45.68;101014.52;107840;1289;21995;-66
2023/02/23 01:30:29;;;;;;;6.10;3.70;;;;;;;8.07;45.85;101017.33;107228;1283;1002510;-64
2023/02/23 01:32:54;;;;;;;6.40;3.60;;;;;;;8.08;45.81;101020.65;108090;1276;21999;-65
2023/02/23 01:35:20;;;;;;;6.30;3.60;;;;;;;8.10;45.99;101023.63;107870;1289;22015;-64
2023/02/23 01:37:46;;;;;;;5.80;3.20;;;;;;;8.14;45.95;101023.33;107911;1289;22000;-65
2023/02/23 01:40:30;;;;;;;6.90;3.20;;;;;;;8.19;45.99;101025.64;108002;1282;22055;-61
2023/02/23 01:43:06;;;;;;;5.80;3.40;;;;;;;8.23;45.77;101024.77;107940;1289;22054;-61
2023/02/23 01:45:36;;;;;;;6.10;3.60;;;;;;;8.27;45.94;101018.70;107861;1289;23084;-61
2023/02/23 01:48:20;;;;;;;4.90;3.50;;;;;;;8.30;46.11;101027.13;107896;1289;22012;-61
2023/02/23 01:50:54;;;;;;;;;;;;;;;8.29;45.82;101032.34;107117;1289;1002304;-63
2023/02/23 01:53:23;;;;;;;6.10;3.70;;;;;;;8.28;45.92;101028.32;107140;1289;1002997;-65
2023/02/23 01:55:50;;;;;;;8.50;4.70;;;;;;;8.28;45.94;101030.42;107008;1282;1002944;-61
2023/02/23 01:58:18;;;;;;;5.80;3.40;;;;;;;8.25;45.78;101034.06;107930;1289;22383;-61
2023/02/23 02:00:53;;;;;;;7.10;4.00;;;;;;;8.24;45.81;101036.67;107896;1289;22003;-61
2023/02/23 02:03:36;;;;;;;5.80;3.40;;;;;;;8.26;45.84;101040.20;107895;1289;23784;-61
2023/02/23 02:06:02;;;;;;;6.60;4.00;;;;;;;8.29;45.99;101039.88;107862;1289;21992;-62
2023/02/23 02:08:31;;;;;;;6.40;3.90;;;;;;;8.32;46.04;101037.63;107932;1276;22004;-65
2023/02/23 02:11:24;;;;;;;7.80;4.10;;;;;;;8.33;45.87;101037.11;107948;1289;22001;-65
2023/02/23 02:13:52;;;;;;;7.60;4.00;;;;;;;8.34;45.73;101044.11;107103;1289;1002371;-64
2023/02/23 02:16:42;;;;;;;6.60;4.10;;;;;;;8.33;45.95;101047.08;107688;1289;22459;-61
2023/02/23 02:19:43;;;;;;;6.70;3.70;;;;;;;8.33;45.93;101047.95;107117;1289;1003194;-64
2023/02/23 02:22:24;;;;;;;6.40;3.90;;;;;;;8.32;45.86;101049.70;107873;1289;21972;-62
2023/02/23 02:25:13;;;;;;;7.60;4.20;;;;;;;8.29;45.84;101055.95;107920;1289;22003;-65
2023/02/23 02:28:07;;;;;;;6.70;4.20;;;;;;;8.24;45.84;101056.27;107879;1289;22039;-64
2023/02/23 02:30:42;;;;;;;7.80;3.60;;;;;;;8.22;45.94;101061.85;107956;1289;22006;-65
2023/02/23 02:33:14;;;;;;;7.80;4.00;;;;;;;8.22;45.98;101060.09;108000;1289;21980;-61
2023/02/23 02:35:55;;;;;;;6.10;3.50;;;;;;;8.24;46.09;101066.57;107879;1289;21987;-61
2023/02/23 02:38:24;;;;;;;7.10;3.70;;;;;;;8.25;46.00;101067.45;108013;1289;22002;-65
2023/02/23 02:41:02;;;;;;;8.00;4.00;;;;;;;8.26;46.12;101061.52;108011;1289;22207;-64
2023/02/23 02:43:28;;;;;;;7.80;4.30;;;;;;;8.30;46.13;101071.16;107916;1277;21996;-61
2023/02/23 02:46:09;;;;;;;7.20;4.00;;;;;;;8.31;46.22;101073.80;107877;1289;21994;-61
2023/02/23 02:48:58;;;;;;;6.70;4.30;;;;;;;8.21;46.48;101076.52;107817;1277;22012;-64
2023/02/23 02:51:24;;;;;;;7.20;4.30;;;;;;;8.15;46.59;101091.16;107992;1287;22032;-64
2023/02/23 02:53:53;;;;;;;7.50;3.70;;;;;;;8.13;46.55;101090.97;107962;1289;22005;-63
2023/02/23 02:56:20;;;;;;;7.80;4.70;;;;;;;8.11;46.59;101086.75;107180;1289;1003195;-63
2023/02/23 02:58:46;;;;;;;6.70;3.90;;;;;;;8.11;46.44;101097.58;108019;1289;22003;-61
2023/02/23 04:18:53;;;;;;;8.10;4.40;;;;;;;7.99;46.89;101137.48;107186;1276;1003759;-65
2023/02/23 04:21:19;;;;;;;7.10;4.10;;;;;;;7.99;46.84;101140.10;107130;1289;1002270;-65
2023/02/23 04:23:45;;;;;;;6.80;4.30;;;;;;;7.97;46.84;101139.73;107982;1289;22004;-66
2023/02/23 04:26:11;;;;;;;10.50;4.40;;;;;;;7.96;46.78;101139.20;107871;1287;22017;-65
2023/02/23 04:28:38;;;;;;;8.70;4.50;;;;;;;7.94;46.80;101136.92;107827;1288;22466;-65
2023/02/23 04:31:05;;;;;;;5.40;3.70;;;;;;;7.94;46.86;101135.88;107624;1289;325454;-61
2023/02/23 04:33:32;;;;;;;7.50;4.40;;;;;;;7.95;46.91;101141.83;107984;1275;21982;-66
2023/02/23 04:35:58;;;;;;;7.20;4.20;;;;;;;7.94;46.78;101143.56;107939;1289;22000;-62
2023/02/23 04:38:24;;;;;;;7.60;4.60;;;;;;;7.92;46.69;101144.94;107910;1287;22057;-62
2023/02/23 04:40:50;;;;;;;7.30;4.60;;;;;;;7.88;46.66;101152.94;107958;1289;21996;-66
2023/02/23 04:43:19;;;;;;;7.70;4.30;;;;;;;7.83;46.67;101154.79;107938;1289;22029;-65
2023/02/23 04:45:45;;;;;;;8.70;5.40;;;;;;;7.79;46.65;101153.88;107153;1289;1003055;-62
2023/02/23 04:48:10;;;;;;;7.20;4.40;;;;;;;7.78;46.76;101162.77;107840;1289;21991;-63
2023/02/23 04:50:38;;;;;;;10.70;5.30;;;;;;;7.76;46.99;101159.94;107901;1289;22026;-66
2023/02/23 04:53:04;;;;;;;9.00;4.90;;;;;;;7.78;47.27;101165.20;107872;1289;22461;-67
2023/02/23 04:55:31;;;;;;;12.30;4.70;;;;;;;7.77;47.24;101169.05;107109;1289;1002636;-67
2023/02/23 04:57:59;;;;;;;10.30;5.00;;;;;;;7.79;47.57;101171.17;107904;1289;21995;-67
2023/02/23 05:00:25;;;;;;;8.30;4.30;;;;;;;7.83;47.56;101175.41;107956;1289;22190;-61
2023/02/23 05:02:50;;;;;;;12.20;4.80;;;;;;;7.85;47.54;101186.10;107919;1289;21987;-63
2023/02/23 05:05:16;;;;;;;15.90;4.40;;;;;;;7.90;47.86;101189.99;107866;1289;22008;-63
2023/02/23 05:07:44;;;;;;;11.30;5.20;;;;;;;7.96;47.98;101187.80;107982;1289;21993;-65
2023/02/23 05:10:12;;;;;;;12.50;5.10;;;;;;;8.04;48.14;101193.83;107963;1288;21992;-64
2023/02/23 05:12:37;;;;;;;10.30;5.10;;;;;;;8.12;48.15;101197.59;107883;1289;22612;-65
2023/02/23 05:15:04;;;;;;;10.40;4.90;;;;;;;8.19;48.10;101198.54;107914;1288;21981;-63
2023/02/23 05:17:29;;;;;;;8.80;5.30;;;;;;;8.25;48.05;101202.79;107241;1289;1002270;-63
2023/02/23 05:19:55;;;;;;;10.80;5.20;;;;;;;8.29;47.99;101204.23;107855;1289;22166;-63
2023/02/23 05:22:23;;;;;;;14.60;5.30;;;;;;;8.32;48.11;101211.96;107324;1289;1002797;-63
2023/02/23 05:24:49;;;;;;;10.20;4.90;;;;;;;8.37;48.15;101215.15;108030;1289;21993;-65
2023/02/23 05:27:16;;;;;;;14.80;5.30;;;;;;;8.40;48.18;101219.20;107884;1289;23750;-64
2023/02/23 05:29:42;;;;;;;12.10;5.80;;;;;;;8.45;48.22;101223.11;107125;1289;1003046;-64
2023/02/23 05:32:07;;;;;;;11.80;4.70;;;;;;;8.49;48.12;101222.46;107965;1289;21988;-63
2023/02/23 05:34:34;;;;;;;15.40;7.70;;;;;;;8.50;47.92;101221.79;107860;1289;24079;-65
2023/02/23 05:37:00;;;;;;;13.00;5.60;;;;;;;8.51;47.98;101223.89;107915;1289;22024;-63
2023/02/23 05:39:25;;;;;;;10.90;5.20;;;;;;;8.52;47.98;101232.30;107125;1289;1002424;-63
2023/02/23 05:41:51;;;;;;;15.30;5.80;;;;;;;8.52;47.81;101235.28;107930;1277;21988;-64
2023/02/23 05:44:17;;;;;;;14.60;5.60;;;;;;;8.53;47.94;101233.00;108045;1289;21991;-65
2023/02/23 05:46:44;;;;;;;10.10;5.50;;;;;;;8.55;48.08;101232.69;107875;1289;21995;-63
2023/02/23 05:49:10;;;;;;;13.40;5.10;;;;;;;8.59;48.15;101237.28;107836;1289;22104;-65
2023/02/23 05:51:38;;;;;;;9.80;5.50;;;;;;;8.61;48.31;101248.84;107910;1288;21998;-65
2023/02/23 05:54:04;;;;;;;8.30;5.40;;;;;;;8.65;48.26;101254.29;107843;1289;22464;-63
2023/02/23 05:56:30;;;;;;;10.90;6.00;;;;;;;8.69;48.28;101259.06;107889;1285;22012;-66
2023/02/23 05:58:56;;;;;;;9.70;5.70;;;;;;;8.73;48.37;101265.23;107859;1289;21997;-66
2023/02/23 06:01:23;;;;;;;10.30;6.10;;;;;;;8.77;48.36;101272.95;108085;1276;22003;-65
2023/02/23 06:04:04;;;;;;;9.40;5.10;;;;;;;8.80;48.45;101277.72;107872;1277;21995;-64
2023/02/23 06:06:31;;;;;;;10.40;5.60;;;;;;;8.84;48.52;101278.45;107921;1289;21995;-66
2023/02/23 06:08:57;;;;;;;9.70;5.30;;;;;;;8.89;48.52;101282.17;108035;1282;21995;-65
2023/02/23 06:11:24;;;;;;;8.80;5.80;;;;;;;8.98;48.66;101288.38;108030;1282;21999;-65
2023/02/23 06:13:51;;;;;;;8.30;5.00;;;;;;;9.05;48.79;101291.42;108041;1289;22026;-64
2023/02/23 06:16:21;;;;;;;11.50;5.60;;;;;;;9.14;48.79;101294.48;107892;1289;22027;-64
2023/02/23 06:18:47;;;;;;;10.30;6.10;;;;;;;9.23;48.82;101292.10;108013;1289;21994;-65
2023/02/23 06:21:13;;;;;;;12.20;6.20;;;;;;;9.28;48.70;101294.75;108005;1289;21994;-63
2023/02/23 06:23:41;;;;;;;11.60;6.40;;;;;;;9.33;48.83;101299.86;107932;1289;21993;-63
2023/02/23 06:26:08;;;;;;;12.90;6.40;;;;;;;9.39;48.93;101307.09;107798;1289;21990;-63
2023/02/23 06:28:37;;;;;;;8.60;5.50;;;;;;;9.46;49.08;101311.54;107889;1289;22073;-65
2023/02/23 06:31:03;;;;;;;10.30;5.60;;;;;;;9.52;49.11;101314.73;107940;1289;22044;-63
2023/02/23 06:33:29;;;;;;;10.00;6.30;;;;;;;9.58;48.97;101315.98;107822;1276;21999;-63
2023/02/23 06:35:55;;;;;;;11.20;6.50;;;;;;;9.65;49.01;101316.55;107936;1276;21993;-62
2023/02/23 06:38:20;;;;;;;8.30;5.90;;;;;;;9.72;48.88;101317.11;107924;1289;21997;-66
2023/02/23 06:40:46;;;;;;;8.60;6.00;;;;;;;9.78;48.71;101320.15;107981;1289;24473;-64
2023/02/23 06:43:12;;;;;;;13.70;7.20;;;;;;;9.85;48.53;101321.25;107855;1289;21952;-64
2023/02/23 06:45:40;;;;;;;10.30;7.30;;;;;;;9.91;48.65;101323.72;107885;1289;21997;-63
2023/02/23 06:48:06;;;;;;;11.80;7.50;;;;;;;9.98;48.60;101327.27;107766;1289;22005;-66
2023/02/23 06:50:33;;;;;;;12.60;7.90;;;;;;;10.05;48.57;101332.05;108013;1289;22006;-64
2023/02/23 06:52:59;;;;;;;11.20;7.40;;;;;;;10.14;48.83;101336.83;107879;1289;21993;-65
2023/02/23 06:55:28;;;;;;;11.90;7.10;;;;;;;10.23;48.73;101342.83;107874;1289;23526;-64
2023/02/23 06:57:54;;;;;;;10.90;7.10;;;;;;;10.32;48.77;101344.80;107850;1285;22005;-65
2023/02/23 07:00:20;;;;;;;11.50;7.40;;;;;;;10.44;48.76;101346.27;107850;1289;21991;-63
2023/02/23 07:02:49;;;;;;;14.20;7.80;;;;;;;10.57;48.67;101346.32;107837;1286;23794;-63
2023/02/23 07:05:15;;;;;;;14.00;8.70;;;;;;;10.70;48.63;101348.48;107889;1289;22197;-64
2023/02/23 07:07:44;;;;;;;13.30;8.30;;;;;;;10.84;48.61;101354.11;107911;1289;21990;-65
2023/02/23 07:10:10;;;;;;;14.40;9.40;;;;;;;10.96;48.60;101352.39;107828;1289;22031;-63
2023/02/23 07:12:40;;;;;;;16.00;9.30;;;;;;;11.09;48.50;101353.46;107856;1289;21998;-63
2023/02/23 07:15:07;;;;;;;15.20;9.70;;;;;;;11.22;48.87;101353.13;107861;1286;21990;-62
2023/02/23 07:17:35;;;;;;;16.50;9.40;;;;;;;11.36;48.79;101353.12;107980;1275;22000;-63
2023/02/23 07:20:04;;;;;;;13.10;8.50;;;;;;;11.50;49.04;101349.43;107867;1289;21995;-62
2023/02/23 07:22:32;;;;;;;15.80;9.40;;;;;;;11.64;49.10;101347.14;107946;1289;21995;-63
2023/02/23 07:24:58;;;;;;;16.70;9.70;;;;;;;11.78;49.06;101350.63;107869;1289;21998;-62
2023/02/23 07:27:24;;;;;;;17.10;10.30;;;;;;;11.90;48.55;101350.77;107845;1289;22002;-65
2023/02/23 07:29:50;;;;;;;15.20;9.90;;;;;;;12.01;48.53;101351.66;107953;1289;21992;-61
2023/02/23 07:32:15;;;;;;;17.60;10.00;;;;;;;12.12;47.81;101354.63;107853;1289;22028;-67
2023/02/23 07:34:41;;;;;;;15.80;10.10;;;;;;;12.24;47.52;101361.80;107822;1289;22054;-64
2023/02/23 07:37:07;;;;;;;13.60;9.50;;;;;;;12.30;46.97;101366.89;107906;1289;22006;-66
2023/02/23 07:39:33;;;;;;;16.40;10.60;;;;;;;12.35;46.79;101369.16;108020;1289;21992;-64
2023/02/23 07:41:58;;;;;;;14.40;9.70;;;;;;;12.41;46.51;101375.64;107987;1289;21999;-67
2023/02/23 07:44:24;;;;;;;13.60;9.30;;;;;;;12.48;46.45;101374.73;107229;1289;1002230;-62
2023/02/23 07:46:51;;;;;;;14.20;9.80;;;;;;;12.57;46.32;101373.47;107941;1289;22005;-63
2023/02/23 07:49:17;;;;;;;15.60;9.60;;;;;;;12.66;46.33;101374.29;107952;1289;21996;-62
2023/02/23 07:51:44;;;;;;;14.40;9.10;;;;;;;12.77;46.20;101375.46;107861;1289;23484;-67
2023/02/23 07:54:10;;;;;;;14.80;9.20;;;;;;;12.85;45.78;101378.25;107867;1289;22007;-67
2023/02/23 07:56:39;;;;;;;13.30;8.90;;;;;;;12.91;45.62;101377.34;107884;1289;22008;-67
2023/02/23 07:59:06;;;;;;;13.70;9.10;;;;;;;12.99;45.52;101374.82;107878;1289;21998;-63
2023/02/23 08:01:33;;;;;;;13.10;9.70;;;;;;;13.10;45.48;101377.20;107917;1289;21990;-67
2023/02/23 08:03:59;;;;;;;14.00;9.30;;;;;;;13.22;45.23;101373.42;107974;1289;21957;-66
2023/02/23 08:06:25;;;;;;;14.00;9.70;;;;;;;13.33;45.22;101375.63;108006;1289;22461;-64
2023/02/23 08:08:51;;;;;;;14.10;9.30;;;;;;;13.43;44.94;101377.70;107960;1289;21992;-67
2023/02/23 08:11:18;;;;;;;12.60;9.10;;;;;;;13.52;44.95;101379.55;107961;1289;21994;-62
2023/02/23 08:13:44;;;;;;;12.00;8.10;;;;;;;13.64;44.99;101380.01;107814;1289;22002;-67
2023/02/23 08:16:11;;;;;;;12.10;8.80;;;;;;;13.77;44.82;101380.75;107864;1289;22050;-64
2023/02/23 08:18:39;;;;;;;12.10;9.00;;;;;;;13.91;44.61;101378.33;108001;1289;22009;-64
2023/02/23 08:21:05;;;;;;;12.70;8.50;;;;;;;14.06;44.41;101377.28;108019;1289;22004;-63
2023/02/23 08:23:32;;;;;;;12.10;8.70;;;;;;;14.21;44.28;101381.01;107905;1289;22000;-68
2023/02/23 08:25:58;;;;;;;14.80;8.80;;;;;;;14.32;44.09;101383.70;107119;1289;1003430;-63
2023/02/23 08:28:25;;;;;;;13.30;8.70;;;;;;;14.32;43.75;101383.01;108042;1289;21999;-64
2023/02/23 08:30:52;;;;;;;12.70;9.10;;;;;;;14.28;43.28;101388.17;107844;1289;21984;-68
2023/02/23 08:33:17;;;;;;;11.80;8.60;;;;;;;14.14;43.17;101387.09;107962;1289;22021;-66
2023/02/23 08:36:08;;;;;;;12.80;8.70;;;;;;;14.07;43.89;101388.58;107913;1289;22014;-68
2023/02/23 08:38:37;;;;;;;12.60;8.30;;;;;;;14.10;43.79;101389.95;107949;1285;21999;-64
2023/02/23 08:41:03;;;;;;;14.00;8.10;;;;;;;14.20;44.07;101387.71;108013;1289;21992;-62
2023/02/23 08:43:31;;;;;;;16.20;8.20;;;;;;;14.30;44.17;101389.73;107967;1282;21999;-66
2023/02/23 08:45:57;;;;;;;16.50;9.10;;;;;;;14.39;44.10;101395.09;107828;1289;21996;-63
2023/02/23 08:48:23;;;;;;;104.30;13.70;;;;;;;14.48;44.24;101395.70;108010;1289;21998;-63
2023/02/23 08:50:49;;;;;;;234.30;25.40;;;;;;;14.57;44.28;101396.46;108058;1289;21983;-63
2023/02/23 08:53:16;;;;;;;26.70;8.50;;;;;;;14.65;43.84;101395.66;108014;1289;22020;-63
2023/02/23 08:55:43;;;;;;;14.30;8.50;;;;;;;14.66;43.60;101395.63;107912;1289;22001;-67
2023/02/23 08:58:12;;;;;;;11.70;7.50;;;;;;;14.67;43.47;101397.04;108061;1289;21983;-64
2023/02/23 09:00:40;;;;;;;13.30;8.50;;;;;;;14.64;43.03;101395.67;108012;1289;21959;-63
2023/02/23 09:03:06;;;;;;;12.30;8.50;;;;;;;14.71;43.50;101402.66;107872;1289;21990;-63
2023/02/23 09:05:32;;;;;;;20.50;8.70;;;;;;;14.88;43.66;101408.29;107888;1289;21995;-63
2023/02/23 09:07:58;;;;;;;20.20;9.20;;;;;;;15.06;43.68;101410.49;107884;1289;21986;-68
2023/02/23 09:10:26;;;;;;;14.60;8.50;;;;;;;15.18;43.48;101413.69;108045;1289;21996;-63
2023/02/23 09:12:59;;;;;;;13.80;8.10;;;;;;;15.24;43.10;101415.53;107977;1286;22004;-63
2023/02/23 09:15:25;;;;;;;16.70;7.80;;;;;;;15.24;42.86;101413.41;107900;1289;21994;-68
2023/02/23 09:17:53;;;;;;;14.00;8.10;;;;;;;15.29;42.99;101410.33;107971;1289;21997;-67
2023/02/23 09:20:25;;;;;;;13.60;8.00;;;;;;;15.44;43.44;101409.02;108048;1289;22132;-68
2023/02/23 09:22:52;;;;;;;13.20;7.80;;;;;;;15.64;41.85;101414.02;107917;1289;21998;-62
2023/02/23 09:25:21;;;;;;;11.00;7.70;;;;;;;15.55;39.84;101414.54;107860;1280;21993;-67
2023/02/23 09:27:52;;;;;;;17.30;7.70;;;;;;;15.53;41.48;101415.45;107877;1289;21995;-63
2023/02/23 09:30:19;;;;;;;8.70;6.40;;;;;;;15.69;41.94;101415.71;107847;1289;21998;-61
2023/02/23 09:32:47;;;;;;;11.40;7.20;;;;;;;15.87;41.51;101418.61;108080;1289;21999;-66
2023/02/23 09:35:16;;;;;;;11.60;7.40;;;;;;;16.07;41.79;101421.97;108106;1285;21995;-62
2023/02/23 09:37:50;;;;;;;13.00;7.30;;;;;;;16.27;40.89;101420.89;107924;1288;22011;-62
2023/02/23 09:40:19;;;;;;;11.00;7.40;;;;;;;16.48;41.21;101416.41;108302;1289;22463;-62
2023/02/23 09:43:43;;;;;;;8.80;6.40;;;;;;;16.77;41.95;101417.21;107910;1289;22753;-66
2023/02/23 09:46:28;;;;;;;10.70;7.30;;;;;;;17.18;41.60;101410.83;107648;1294;22007;-66
2023/02/23 09:48:54;;;;;;;9.00;6.70;;;;;;;17.49;41.49;101410.63;107526;1294;24227;-62
2023/02/23 09:51:20;;;;;;;9.20;6.40;;;;;;;17.75;41.50;101411.58;107554;1289;21984;-67
2023/02/23 09:53:51;;;;;;;11.90;7.20;;;;;;;18.04;41.52;101410.68;107994;1289;21992;-67
2023/02/23 09:56:28;;;;;;;10.70;7.60;;;;;;;18.26;39.98;101410.96;107887;1289;22743;-62
2023/02/23 09:58:54;;;;;;;10.20;7.00;;;;;;;18.25;38.30;101406.02;107858;1289;21992;-67
2023/02/23 10:01:39;;;;;;;9.30;6.60;;;;;;;18.15;37.93;101403.27;107907;1289;22012;-67
2023/02/23 10:04:27;;;;;;;9.20;5.70;;;;;;;18.05;36.61;101410.12;107873;1289;21995;-67
2023/02/23 10:07:22;;;;;;;8.10;6.30;;;;;;;18.05;38.39;101406.23;107944;1289;23764;-62
2023/02/23 10:10:14;;;;;;;11.60;6.90;;;;;;;18.34;37.95;101405.23;107692;1289;21987;-62
2023/02/23 10:12:46;;;;;;;11.40;6.60;;;;;;;18.51;38.66;101407.58;107823;1289;21998;-68
2023/02/23 10:15:54;;;;;;;8.40;5.80;;;;;;;18.67;39.23;101406.94;107868;1287;22002;-62
2023/02/23 10:18:36;;;;;;;8.50;5.80;;;;;;;18.77;37.36;101404.86;107836;1289;22060;-65
2023/02/23 10:21:06;;;;;;;8.80;5.60;;;;;;;18.45;36.71;101406.85;107842;1280;22187;-66
2023/02/23 10:23:37;;;;;;;8.30;5.70;;;;;;;18.33;38.04;101410.77;107898;1289;22014;-63
2023/02/23 10:26:03;;;;;;;9.50;5.80;;;;;;;18.32;37.96;101408.67;107876;1289;22009;-67
2023/02/23 10:28:32;;;;;;;8.10;5.50;;;;;;;18.21;36.44;101408.78;107734;1289;22324;-67
2023/02/23 10:30:58;;;;;;;7.90;5.50;;;;;;;17.90;36.35;101411.38;107853;1289;22005;-67
2023/02/23 10:33:33;;;;;;;7.90;5.60;;;;;;;17.60;36.85;101411.96;107823;1289;21996;-67
2023/02/23 10:36:07;;;;;;;8.60;5.50;;;;;;;17.40;37.48;101413.70;107869;1289;22251;-62
2023/02/23 10:38:33;;;;;;;8.70;6.30;;;;;;;17.20;37.24;101413.98;107807;1289;22034;-66
2023/02/23 10:41:00;;;;;;;8.10;5.90;;;;;;;16.99;37.29;101412.49;107851;1289;22459;-62
2023/02/23 10:43:26;;;;;;;8.00;5.80;;;;;;;16.79;36.75;101412.20;107821;1289;21996;-63
2023/02/23 10:45:52;;;;;;;7.70;5.80;;;;;;;16.57;37.27;101417.99;107871;1289;22007;-62
2023/02/23 10:48:26;;;;;;;7.90;5.10;;;;;;;16.40;37.51;101420.10;107841;1289;22005;-67
2023/02/23 10:51:01;;;;;;;9.00;5.40;;;;;;;16.39;37.33;101416.59;107764;1289;22000;-62
2023/02/23 10:53:35;;;;;;;8.70;5.80;;;;;;;16.34;37.38;101414.38;107943;1289;22041;-62
2023/02/23 10:56:06;;;;;;;8.40;6.00;;;;;;;16.25;36.56;101414.39;107843;1289;23746;-66
2023/02/23 10:58:46;;;;;;;8.40;5.30;;;;;;;16.12;37.20;101414.98;107908;1289;22093;-63
2023/02/23 11:01:37;;;;;;;8.50;6.10;;;;;;;16.08;36.19;101415.06;107820;1289;23618;-66
2023/02/23 11:04:20;;;;;;;12.40;5.80;;;;;;;15.99;36.88;101409.02;107854;1289;21993;-62
2023/02/23 11:06:48;;;;;;;7.10;5.20;;;;;;;16.15;36.63;101407.83;107877;1285;22275;-62
2023/02/23 11:09:29;;;;;;;8.00;5.60;;;;;;;16.29;35.40;101404.73;107817;1289;21993;-67
2023/02/23 11:12:02;;;;;;;9.60;5.90;;;;;;;16.41;36.24;101401.14;107874;1289;22191;-67
2023/02/23 11:14:30;;;;;;;7.00;5.50;;;;;;;16.82;37.44;101398.86;107847;1289;22160;-62
2023/02/23 11:16:58;;;;;;;7.60;5.20;;;;;;;17.32;36.09;101391.34;107777;1289;21996;-66
2023/02/23 11:19:36;;;;;;;7.70;5.20;;;;;;;17.68;36.71;101400.20;107886;1289;22034;-64
2023/02/23 11:22:06;;;;;;;7.50;5.30;;;;;;;18.08;37.32;101397.08;107898;1289;21999;-64
2023/02/23 11:24:34;;;;;;;8.50;5.90;;;;;;;18.35;37.12;101395.27;107631;1289;22003;-64
2023/02/23 11:27:02;;;;;;;8.10;5.70;;;;;;;18.45;37.04;101392.66;107829;1289;22028;-64
2023/02/23 11:29:34;;;;;;;11.10;5.80;;;;;;;18.39;36.44;101390.69;107888;1289;22018;-66
2023/02/23 11:32:19;;;;;;;8.60;6.40;;;;;;;18.24;36.76;101391.30;107901;1289;21998;-64
2023/02/23 11:34:48;;;;;;;10.50;6.50;;;;;;;18.08;36.79;101395.11;107852;1285;22034;-65
2023/02/23 11:37:17;;;;;;;8.20;5.80;;;;;;;17.91;36.82;101395.02;107990;1289;22062;-64
2023/02/23 11:39:59;;;;;;;8.30;6.00;;;;;;;17.73;36.53;101403.11;107957;1289;22009;-63
2023/02/23 11:42:32;;;;;;;8.90;6.30;;;;;;;17.48;36.46;101400.71;108022;1289;22002;-63
2023/02/23 11:45:03;;;;;;;8.80;6.00;;;;;;;17.26;36.50;101403.39;107701;1289;22064;-65
2023/02/23 11:47:31;;;;;;;7.90;6.20;;;;;;;17.10;37.00;101405.52;107891;1289;22768;-63
2023/02/23 11:49:57;;;;;;;10.10;6.10;;;;;;;17.11;37.04;101404.44;107843;1289;22006;-63
2023/02/23 11:52:23;;;;;;;54.60;10.10;;;;;;;17.11;37.43;101404.98;107756;1289;22004;-63
2023/02/23 11:54:50;;;;;;;10.90;6.20;;;;;;;17.15;37.83;101403.27;107967;1289;22001;-64
2023/02/23 11:57:24;;;;;;;9.00;6.30;;;;;;;17.25;37.68;101399.50;107967;1289;23057;-63
2023/02/23 11:59:50;;;;;;;11.70;6.20;;;;;;;17.35;38.34;101402.63;107962;1289;22093;-65
2023/02/23 12:02:24;;;;;;;11.50;6.60;;;;;;;17.41;37.59;101400.54;107708;1289;21990;-63
2023/02/23 12:05:00;;;;;;;14.10;6.60;;;;;;;17.39;37.20;101400.60;107991;1286;22003;-65
2023/02/23 12:07:37;;;;;;;8.90;6.50;;;;;;;17.27;37.02;101402.30;107886;1289;22004;-64
2023/02/23 12:10:06;;;;;;;9.50;6.00;;;;;;;17.13;36.98;101403.67;107815;1289;22000;-64
2023/02/23 12:12:39;;;;;;;10.20;7.10;;;;;;;16.95;36.80;101404.08;107957;1289;22067;-63
2023/02/23 12:15:14;;;;;;;11.10;6.50;;;;;;;16.79;36.87;101402.45;108011;1289;22001;-64
2023/02/23 12:17:48;;;;;;;12.10;7.00;;;;;;;16.73;37.11;101405.09;107780;1289;22002;-65
2023/02/23 12:20:23;;;;;;;11.90;6.60;;;;;;;16.70;37.17;101405.67;107923;1289;24248;-63
2023/02/23 12:23:09;;;;;;;11.10;7.00;;;;;;;16.61;37.02;101409.39;107783;1289;21991;-63
2023/02/23 12:25:41;;;;;;;13.30;8.00;;;;;;;16.50;37.09;101411.05;107888;1286;21991;-65
2023/02/23 12:28:44;;;;;;;12.10;7.30;;;;;;;16.36;36.95;101411.51;107833;1289;23807;-63
2023/02/23 12:31:47;;;;;;;11.10;7.00;;;;;;;16.27;37.13;101414.17;107848;1289;21981;-65
2023/02/23 12:34:26;;;;;;;11.70;6.00;;;;;;;16.23;37.10;101412.29;107852;1289;21996;-65
2023/02/23 12:36:56;;;;;;;9.90;6.70;;;;;;;16.27;37.30;101415.95;107956;1289;24319;-65
2023/02/23 12:39:26;;;;;;;12.80;6.60;;;;;;;16.40;37.39;101413.91;107906;1289;24209;-65
2023/02/23 12:42:34;;;;;;;8.50;6.50;;;;;;;16.57;36.37;101416.23;108058;1289;24008;-64
2023/02/23 12:45:04;;;;;;;8.70;6.20;;;;;;;16.64;36.44;101411.11;107943;1283;21997;-66
2023/02/23 12:47:47;;;;;;;9.30;6.30;;;;;;;16.81;37.21;101409.85;108418;1289;23057;-67
2023/02/23 12:50:29;;;;;;;8.30;6.20;;;;;;;17.03;36.24;101409.56;107909;1289;21989;-67